createdAt,value
2018-06-28T08:17:06.315Z,62.1
2018-06-28T08:17:56.355Z,62.1
2018-06-28T08:18:46.102Z,62.1
2018-06-28T08:19:36.177Z,62.1
2018-06-28T08:20:26.823Z,62.1
2018-06-28T08:21:16.580Z,62.1
2018-06-28T08:22:06.969Z,62.1
2018-06-28T08:22:56.169Z,62.1
2018-06-28T08:23:47.059Z,62.1
2018-06-28T08:24:36.259Z,62.1
2018-06-28T08:25:27.187Z,62.1
2018-06-28T08:26:16.959Z,62.1
2018-06-28T08:27:07.626Z,62.1
2018-06-28T08:27:56.813Z,62
2018-06-28T08:28:46.609Z,62
2018-06-28T08:29:37.205Z,62
2018-06-28T08:30:26.703Z,62
2018-06-28T08:31:17.356Z,62
2018-06-28T08:32:07.132Z,62
2018-06-28T08:32:57.172Z,62
2018-06-28T08:33:47.514Z,62
2018-06-28T08:34:37.304Z,62
2018-06-28T08:35:27.704Z,61.9
2018-06-28T08:36:17.823Z,61.9
2018-06-28T08:37:07.595Z,62
2018-06-28T08:37:57.357Z,61.9
2018-06-28T08:38:47.910Z,61.9
2018-06-28T08:39:38.242Z,61.9
2018-06-28T08:40:28.154Z,61.9
2018-06-28T08:41:17.671Z,61.9
2018-06-28T08:42:07.592Z,61.9
2018-06-28T08:42:58.020Z,61.9
2018-06-28T08:43:47.992Z,61.9
2018-06-28T08:44:38.660Z,61.9
2018-06-28T08:45:28.417Z,61.9
2018-06-28T08:46:18.252Z,61.9
2018-06-28T08:47:08.779Z,61.9
2018-06-28T08:47:58.332Z,61.9
2018-06-28T08:48:48.638Z,61.9
2018-06-28T08:49:39.012Z,61.9
2018-06-28T08:50:28.506Z,61.9
2018-06-28T08:51:19.122Z,61.8
2018-06-28T08:52:08.451Z,61.9
2018-06-28T08:52:58.764Z,61.8
2018-06-28T08:53:48.760Z,61.8
2018-06-28T08:54:38.655Z,61.8
2018-06-28T08:55:28.877Z,61.8
2018-06-28T08:56:19.510Z,61.8
2018-06-28T08:57:09.571Z,61.8
2018-06-28T08:57:59.095Z,61.8
2018-06-28T08:58:48.913Z,61.8
2018-06-28T08:59:39.244Z,61.8
2018-06-28T09:00:29.550Z,61.8
2018-06-28T09:01:19.315Z,61.8
2018-06-28T09:02:09.654Z,61.8
2018-06-28T09:02:59.728Z,61.8
2018-06-28T09:03:50.119Z,61.8
2018-06-28T09:04:38.501Z,61.8
2018-06-28T09:05:30.200Z,61.8
2018-06-28T09:06:20.279Z,61.8
2018-06-28T09:07:10.017Z,61.8
2018-06-28T09:07:59.328Z,61.8
2018-06-28T09:08:50.406Z,61.7
2018-06-28T09:09:39.965Z,61.7
2018-06-28T09:10:30.024Z,61.7
2018-06-28T09:11:20.421Z,61.7
2018-06-28T09:12:10.409Z,61.7
2018-06-28T09:13:00.728Z,61.7
2018-06-28T09:13:50.775Z,61.6
2018-06-28T09:14:40.325Z,61.7
2018-06-28T09:15:31.273Z,61.6
2018-06-28T09:16:20.721Z,61.7
2018-06-28T09:17:10.774Z,61.6
2018-06-28T09:17:59.325Z,61.6
2018-06-28T09:18:50.710Z,61.6
2018-06-28T09:19:40.482Z,61.6
2018-06-28T09:20:30.388Z,61.6
2018-06-28T09:21:20.128Z,61.6
2018-06-28T09:22:10.673Z,61.6
2018-06-28T09:23:01.886Z,61.6
2018-06-28T09:23:51.572Z,61.6
2018-06-28T09:24:41.388Z,61.6
2018-06-28T09:25:31.379Z,61.6
2018-06-28T09:26:21.440Z,61.6
2018-06-28T09:27:11.803Z,61.6
2018-06-28T09:28:01.907Z,61.6
2018-06-28T09:28:51.119Z,61.6
2018-06-28T09:29:41.449Z,61.6
2018-06-28T09:30:31.868Z,61.5
2018-06-28T09:31:21.571Z,61.6
2018-06-28T09:32:11.890Z,61.5
2018-06-28T09:33:02.212Z,61.5
2018-06-28T09:33:52.304Z,61.5
2018-06-28T09:34:42.125Z,61.5
2018-06-28T09:35:32.413Z,61.5
2018-06-28T09:36:22.495Z,61.5
2018-06-28T09:37:12.278Z,61.5
2018-06-28T09:38:02.615Z,61.5
2018-06-28T09:38:52.723Z,61.5
2018-06-28T09:39:42.787Z,61.5
2018-06-28T09:40:32.522Z,61.4
2018-06-28T09:41:22.612Z,61.4
2018-06-28T09:42:12.104Z,61.4
2018-06-28T09:43:02.734Z,61.4
2018-06-28T09:43:52.786Z,61.4
2018-06-28T09:44:42.976Z,61.4
2018-06-28T09:45:33.211Z,61.4
2018-06-28T09:46:23.231Z,61.4
2018-06-28T09:47:13.286Z,61.4
2018-06-28T09:48:03.086Z,61.4
2018-06-28T09:48:53.160Z,61.4
2018-06-28T09:49:43.234Z,61.4
2018-06-28T09:50:33.278Z,61.4
2018-06-28T09:51:23.366Z,61.4
2018-06-28T09:52:13.434Z,61.4
2018-06-28T09:53:03.748Z,61.4
2018-06-28T09:53:53.256Z,61.4
2018-06-28T09:54:44.079Z,61.4
2018-06-28T09:55:34.018Z,61.3
2018-06-28T09:56:23.184Z,61.3
2018-06-28T09:57:13.793Z,61.3
2018-06-28T09:58:04.144Z,61.3
2018-06-28T09:58:53.634Z,61.3
2018-06-28T09:59:43.960Z,61.3
2018-06-28T10:00:36.601Z,61.3
2018-06-28T10:01:24.113Z,61.3
2018-06-28T10:02:14.469Z,61.3
2018-06-28T10:03:04.239Z,61.3
2018-06-28T10:03:53.984Z,61.3
2018-06-28T10:04:44.688Z,61.3
2018-06-28T10:05:34.699Z,61.3
2018-06-28T10:06:23.660Z,61.3
2018-06-28T10:07:14.303Z,61.3
2018-06-28T10:08:04.312Z,61.3
2018-06-28T10:08:54.653Z,61.2
2018-06-28T10:09:45.010Z,61.2
2018-06-28T10:10:34.544Z,61.3
2018-06-28T10:11:24.847Z,61.3
2018-06-28T10:12:15.212Z,61.2
2018-06-28T10:13:04.686Z,61.2
2018-06-28T10:13:55.052Z,61.2
2018-06-28T10:14:46.013Z,61.2
2018-06-28T10:15:35.159Z,61.2
2018-06-28T10:16:25.606Z,61.2
2018-06-28T10:17:15.586Z,61.2
2018-06-28T10:18:06.282Z,61.2
2018-06-28T10:18:55.135Z,61.1
2018-06-28T10:19:45.818Z,61.1
2018-06-28T10:20:35.097Z,61.1
2018-06-28T10:21:25.890Z,61.1
2018-06-28T10:22:15.395Z,61.1
2018-06-28T10:23:06.056Z,61.1
2018-06-28T10:23:55.267Z,61.1
2018-06-28T10:24:46.770Z,61.1
2018-06-28T10:25:35.939Z,61.1
2018-06-28T10:26:25.986Z,61.1
2018-06-28T10:27:15.542Z,61.1
2018-06-28T10:28:05.833Z,61.1
2018-06-28T10:28:56.440Z,61.1
2018-06-28T10:29:45.805Z,61.1
2018-06-28T10:30:35.832Z,61.1
2018-06-28T10:31:26.254Z,61.1
2018-06-28T10:32:15.733Z,61.1
2018-06-28T10:33:06.298Z,61.1
2018-06-28T10:33:56.347Z,61.1
2018-06-28T10:34:46.390Z,61.1
2018-06-28T10:35:36.675Z,61.1
2018-06-28T10:36:27.006Z,61
2018-06-28T10:37:17.060Z,61
2018-06-28T10:38:07.106Z,61
2018-06-28T10:38:56.921Z,61
2018-06-28T10:39:47.324Z,61
2018-06-28T10:40:36.836Z,61
2018-06-28T10:41:27.113Z,61
2018-06-28T10:42:17.435Z,61
2018-06-28T10:43:07.255Z,61
2018-06-28T10:43:57.583Z,60.9
2018-06-28T10:44:47.665Z,60.9
2018-06-28T10:45:37.457Z,60.9
2018-06-28T10:46:27.506Z,60.9
2018-06-28T10:47:16.980Z,60.9
2018-06-28T10:48:07.665Z,60.9
2018-06-28T10:48:57.666Z,60.9
2018-06-28T10:49:48.092Z,60.9
2018-06-28T10:50:37.865Z,60.9
2018-06-28T10:51:26.748Z,60.9
2018-06-28T10:52:17.992Z,60.9
2018-06-28T10:53:07.729Z,60.9
2018-06-28T10:53:58.861Z,60.9
2018-06-28T10:54:48.427Z,60.9
2018-06-28T10:55:38.453Z,60.9
2018-06-28T10:56:28.014Z,60.9
2018-06-28T10:57:18.618Z,60.9
2018-06-28T10:58:08.415Z,60.9
2018-06-28T10:58:58.160Z,60.9
2018-06-28T10:59:48.539Z,60.8
2018-06-28T11:00:38.868Z,60.8
2018-06-28T11:01:28.653Z,60.8
2018-06-28T11:02:18.970Z,60.8
2018-06-28T11:03:08.505Z,60.8
2018-06-28T11:03:59.163Z,60.8
2018-06-28T11:04:48.865Z,60.8
2018-06-28T11:05:39.245Z,60.8
2018-06-28T11:06:27.969Z,60.8
2018-06-28T11:07:19.209Z,60.8
2018-06-28T11:08:09.195Z,60.8
2018-06-28T11:08:58.938Z,60.8
2018-06-28T11:09:49.006Z,60.8
2018-06-28T11:10:39.589Z,60.8
2018-06-28T11:11:29.440Z,60.8
2018-06-28T11:12:19.519Z,60.8
2018-06-28T11:13:09.532Z,60.8
2018-06-28T11:13:59.569Z,60.8
2018-06-28T11:14:49.954Z,60.8
2018-06-28T11:15:40.096Z,60.8
2018-06-28T11:16:30.030Z,60.7
2018-06-28T11:17:20.091Z,60.7
2018-06-28T11:18:09.607Z,60.7
2018-06-28T11:18:59.973Z,60.7
2018-06-28T11:19:49.728Z,60.7
2018-06-28T11:20:40.057Z,60.7
2018-06-28T11:21:30.177Z,60.7
2018-06-28T11:22:20.498Z,60.7
2018-06-28T11:23:10.320Z,60.7
2018-06-28T11:24:00.059Z,60.7
2018-06-28T11:24:50.394Z,60.6
2018-06-28T11:25:40.738Z,60.6
2018-06-28T11:26:30.546Z,60.6
2018-06-28T11:27:19.771Z,60.6
2018-06-28T11:28:10.899Z,60.6
2018-06-28T11:29:01.001Z,60.6
2018-06-28T11:29:51.108Z,60.6
2018-06-28T11:30:40.549Z,60.6
2018-06-28T11:31:30.850Z,60.6
2018-06-28T11:32:20.955Z,60.6
2018-06-28T11:33:11.294Z,60.6
2018-06-28T11:34:01.432Z,60.6
2018-06-28T11:34:51.141Z,60.6
2018-06-28T11:35:40.991Z,60.6
2018-06-28T11:36:31.011Z,60.6
2018-06-28T11:37:21.361Z,60.6
2018-06-28T11:38:11.373Z,60.6
2018-06-28T11:39:01.186Z,60.6
2018-06-28T11:39:51.533Z,60.6
2018-06-28T11:40:41.601Z,60.6
2018-06-28T11:41:31.933Z,60.6
2018-06-28T11:42:21.698Z,60.5
2018-06-28T11:43:12.042Z,60.5
2018-06-28T11:44:02.129Z,60.5
2018-06-28T11:44:51.620Z,60.5
2018-06-28T11:45:41.137Z,60.5
2018-06-28T11:46:31.185Z,60.5
2018-06-28T11:47:21.823Z,60.5
2018-06-28T11:48:12.191Z,60.5
2018-06-28T11:49:01.640Z,60.4
2018-06-28T11:49:52.297Z,60.4
2018-06-28T11:50:42.369Z,60.4
2018-06-28T11:51:32.735Z,60.4
2018-06-28T11:52:22.272Z,60.4
2018-06-28T11:53:12.825Z,60.4
2018-06-28T11:54:02.895Z,60.4
2018-06-28T11:54:52.932Z,60.4
2018-06-28T11:55:42.449Z,60.4
2018-06-28T11:56:33.069Z,60.4
2018-06-28T11:57:22.572Z,60.4
2018-06-28T11:58:12.619Z,60.4
2018-06-28T11:59:02.937Z,60.4
2018-06-28T11:59:53.050Z,60.4
2018-06-28T12:00:42.881Z,60.4
2018-06-28T12:01:32.620Z,60.4
2018-06-28T12:02:23.239Z,60.4
2018-06-28T12:03:13.615Z,60.4
2018-06-28T12:04:03.668Z,60.4
2018-06-28T12:04:53.470Z,60.4
2018-06-28T12:05:43.885Z,60.3
2018-06-28T12:06:33.568Z,60.3
2018-06-28T12:07:23.863Z,60.3
2018-06-28T12:08:13.704Z,60.3
2018-06-28T12:09:04.037Z,60.3
2018-06-28T12:09:54.035Z,60.3
2018-06-28T12:10:43.807Z,60.3
2018-06-28T12:11:34.179Z,60.3
2018-06-28T12:12:23.959Z,60.3
2018-06-28T12:13:14.287Z,60.3
2018-06-28T12:14:04.367Z,60.3
2018-06-28T12:14:54.447Z,60.3
2018-06-28T12:15:44.230Z,60.3
2018-06-28T12:16:34.554Z,60.3
2018-06-28T12:17:24.612Z,60.3
2018-06-28T12:18:14.380Z,60.3
2018-06-28T12:19:04.502Z,60.3
2018-06-28T12:19:54.564Z,60.3
2018-06-28T12:20:44.336Z,60.2
2018-06-28T12:21:34.932Z,60.2
2018-06-28T12:22:25.526Z,60.2
2018-06-28T12:23:14.525Z,60.2
2018-06-28T12:24:05.140Z,60.2
2018-06-28T12:24:55.187Z,60.2
2018-06-28T12:25:44.738Z,60.2
2018-06-28T12:26:35.027Z,60.2
2018-06-28T12:27:25.365Z,60.2
2018-06-28T12:28:15.152Z,60.1
2018-06-28T12:29:05.486Z,60.2
2018-06-28T12:29:55.617Z,60.1
2018-06-28T12:30:45.347Z,60.1
2018-06-28T12:31:35.686Z,60.1
2018-06-28T12:32:25.743Z,60.1
2018-06-28T12:33:15.588Z,60.1
2018-06-28T12:34:05.675Z,60.1
2018-06-28T12:34:55.955Z,60.1
2018-06-28T12:35:45.991Z,60.1
2018-06-28T12:36:36.046Z,60.1
2018-06-28T12:37:25.834Z,60.1
2018-06-28T12:38:15.385Z,60.1
2018-06-28T12:39:06.031Z,60.1
2018-06-28T12:39:56.043Z,60.1
2018-06-28T12:40:45.815Z,60.1
2018-06-28T12:41:36.157Z,60.1
2018-06-28T12:42:26.218Z,60.1
2018-06-28T12:43:16.571Z,60.1
2018-06-28T12:44:06.346Z,60.1
2018-06-28T12:44:56.714Z,60
2018-06-28T12:45:46.774Z,60
2018-06-28T12:46:37.600Z,60
2018-06-28T12:47:26.694Z,60
2018-06-28T12:48:16.679Z,60
2018-06-28T12:49:06.006Z,60
2018-06-28T12:49:57.109Z,60
2018-06-28T12:50:47.144Z,60
2018-06-28T12:51:36.938Z,60
2018-06-28T12:52:27.025Z,60
2018-06-28T12:53:17.340Z,60
2018-06-28T12:54:07.481Z,59.9
2018-06-28T12:54:57.445Z,59.9
2018-06-28T12:55:46.989Z,59.9
2018-06-28T12:56:37.300Z,59.9
2018-06-28T12:57:27.640Z,59.9
2018-06-28T12:58:17.133Z,59.9
2018-06-28T12:59:07.206Z,59.9
2018-06-28T12:59:57.948Z,59.9
2018-06-28T13:00:47.520Z,59.9
2018-06-28T13:01:37.727Z,59.9
2018-06-28T13:02:28.043Z,59.9
2018-06-28T13:03:18.101Z,59.9
2018-06-28T13:04:07.879Z,59.9
2018-06-28T13:04:57.911Z,59.9
2018-06-28T13:05:47.426Z,59.9
2018-06-28T13:06:38.352Z,59.9
2018-06-28T13:07:27.839Z,59.9
2018-06-28T13:08:18.231Z,59.9
2018-06-28T13:09:08.574Z,59.8
2018-06-28T13:09:58.625Z,59.9
2018-06-28T13:10:48.645Z,59.8
2018-06-28T13:11:38.450Z,59.8
2018-06-28T13:12:28.018Z,59.8
2018-06-28T13:13:18.304Z,59.8
2018-06-28T13:14:08.938Z,59.8
2018-06-28T13:14:58.682Z,59.8
2018-06-28T13:15:49.014Z,59.8
2018-06-28T13:16:38.787Z,59.8
2018-06-28T13:17:29.150Z,59.8
2018-06-28T13:18:18.635Z,59.8
2018-06-28T13:19:09.338Z,59.8
2018-06-28T13:19:59.853Z,59.8
2018-06-28T13:20:49.416Z,59.8
2018-06-28T13:21:39.191Z,59.8
2018-06-28T13:22:29.554Z,59.8
2018-06-28T13:23:19.604Z,59.8
2018-06-28T13:24:09.378Z,59.8
2018-06-28T13:24:59.721Z,59.8
2018-06-28T13:25:49.262Z,59.8
2018-06-28T13:26:39.589Z,59.8
2018-06-28T13:27:29.704Z,59.8
2018-06-28T13:28:19.965Z,59.7
2018-06-28T13:29:09.791Z,59.8
2018-06-28T13:29:59.791Z,59.7
2018-06-28T13:30:50.190Z,59.7
2018-06-28T13:31:39.473Z,59.7
2018-06-28T13:32:30.288Z,59.7
2018-06-28T13:33:20.112Z,59.7
2018-06-28T13:34:09.685Z,59.7
2018-06-28T13:35:00.515Z,59.6
2018-06-28T13:35:49.703Z,59.7
2018-06-28T13:36:40.003Z,59.6
2018-06-28T13:37:30.666Z,59.6
2018-06-28T13:38:20.161Z,59.6
2018-06-28T13:39:10.875Z,59.6
2018-06-28T13:40:00.561Z,59.6
2018-06-28T13:40:53.114Z,59.6
2018-06-28T13:41:47.327Z,59.6
2018-06-28T13:42:30.843Z,59.6
2018-06-28T13:43:21.164Z,59.6
2018-06-28T13:44:10.661Z,59.6
2018-06-28T13:45:00.959Z,59.6
2018-06-28T13:45:51.026Z,59.6
2018-06-28T13:46:41.476Z,59.6
2018-06-28T13:47:31.454Z,59.6
2018-06-28T13:48:21.249Z,59.6
2018-06-28T13:49:11.840Z,59.6
2018-06-28T13:50:01.352Z,59.6
2018-06-28T13:50:51.413Z,59.6
2018-06-28T13:51:41.450Z,59.6
2018-06-28T13:52:31.265Z,59.6
2018-06-28T13:53:21.563Z,59.5
2018-06-28T13:54:11.935Z,59.5
2018-06-28T13:55:02.018Z,59.5
2018-06-28T13:55:51.259Z,59.5
2018-06-28T13:56:41.353Z,59.5
2018-06-28T13:57:32.322Z,59.5
2018-06-28T13:58:22.244Z,59.5
2018-06-28T13:59:11.731Z,59.5
2018-06-28T14:00:02.379Z,59.4
2018-06-28T14:00:52.469Z,59.4
2018-06-28T14:01:41.522Z,59.4
2018-06-28T14:02:31.728Z,59.4
2018-06-28T14:03:22.204Z,59.4
2018-06-28T14:04:11.933Z,59.5
2018-06-28T14:05:02.729Z,59.4
2018-06-28T14:05:52.099Z,59.4
2018-06-28T14:06:42.880Z,59.4
2018-06-28T14:07:32.640Z,59.4
2018-06-28T14:08:22.454Z,59.4
2018-06-28T14:09:12.783Z,59.4
2018-06-28T14:10:02.555Z,59.4
2018-06-28T14:10:52.333Z,59.4
2018-06-28T14:11:43.296Z,59.4
2018-06-28T14:12:32.727Z,59.4
2018-06-28T14:13:22.839Z,59.4
2018-06-28T14:14:13.158Z,59.4
2018-06-28T14:15:03.330Z,59.4
2018-06-28T14:15:53.300Z,59.4
2018-06-28T14:16:43.595Z,59.4
2018-06-28T14:17:33.731Z,59.3
2018-06-28T14:18:22.911Z,59.3
2018-06-28T14:19:13.524Z,59.4
2018-06-28T14:20:03.593Z,59.3
2018-06-28T14:20:53.655Z,59.3
2018-06-28T14:21:43.691Z,59.3
2018-06-28T14:22:33.548Z,59.3
2018-06-28T14:23:23.825Z,59.3
2018-06-28T14:24:13.633Z,59.3
2018-06-28T14:25:03.944Z,59.3
2018-06-28T14:25:55.238Z,59.3
2018-06-28T14:26:44.063Z,59.3
2018-06-28T14:27:34.426Z,59.3
2018-06-28T14:28:24.490Z,59.3
2018-06-28T14:29:13.984Z,59.3
2018-06-28T14:30:04.600Z,59.3
2018-06-28T14:30:54.645Z,59.3
2018-06-28T14:31:44.754Z,59.3
2018-06-28T14:32:34.837Z,59.3
2018-06-28T14:33:24.577Z,59.3
2018-06-28T14:34:14.912Z,59.2
2018-06-28T14:35:05.375Z,59.3
2018-06-28T14:35:54.810Z,59.2
2018-06-28T14:36:45.116Z,59.2
2018-06-28T14:37:34.933Z,59.2
2018-06-28T14:38:25.251Z,59.2
2018-06-28T14:39:15.380Z,59.2
2018-06-28T14:40:04.792Z,59.2
2018-06-28T14:40:55.166Z,59.2
2018-06-28T14:41:46.331Z,59.2
2018-06-28T14:42:35.522Z,59.2
2018-06-28T14:43:25.360Z,59.1
2018-06-28T14:44:15.657Z,59.2
2018-06-28T14:45:06.973Z,59.1
2018-06-28T14:45:55.781Z,59.1
2018-06-28T14:46:45.845Z,59.1
2018-06-28T14:47:36.832Z,59.1
2018-06-28T14:48:25.747Z,59.1
2018-06-28T14:49:15.809Z,59.1
2018-06-28T14:50:05.886Z,59.1
2018-06-28T14:50:56.202Z,59.1
2018-06-28T14:51:46.263Z,59.1
2018-06-28T14:52:35.530Z,59.1
2018-06-28T14:53:26.120Z,59.1
2018-06-28T14:54:15.917Z,59.1
2018-06-28T14:55:05.982Z,59.1
2018-06-28T14:55:56.583Z,59.1
2018-06-28T14:56:46.632Z,59.1
2018-06-28T14:57:36.415Z,59.1
2018-06-28T14:58:26.197Z,59.1
2018-06-28T14:59:16.817Z,59.1
2018-06-28T15:00:06.898Z,59
2018-06-28T15:00:56.997Z,59
2018-06-28T15:01:46.459Z,59
2018-06-28T15:02:36.485Z,59
2018-06-28T15:03:26.294Z,59
2018-06-28T15:04:16.514Z,59
2018-06-28T15:05:06.697Z,59
2018-06-28T15:05:56.794Z,59
2018-06-28T15:06:46.818Z,59
2018-06-28T15:07:37.187Z,59
2018-06-28T15:08:27.265Z,59
2018-06-28T15:09:17.287Z,58.9
2018-06-28T15:10:07.637Z,58.9
2018-06-28T15:10:57.688Z,58.9
2018-06-28T15:11:47.829Z,58.9
2018-06-28T15:12:37.817Z,58.9
2018-06-28T15:13:27.613Z,58.9
2018-06-28T15:14:17.944Z,58.9
2018-06-28T15:15:08.007Z,58.9
2018-06-28T15:15:58.052Z,58.9
2018-06-28T15:16:48.144Z,58.9
2018-06-28T15:17:37.903Z,58.9
2018-06-28T15:18:28.281Z,58.9
2018-06-28T15:19:17.974Z,58.9
2018-06-28T15:20:07.830Z,58.9
2018-06-28T15:20:58.519Z,58.9
2018-06-28T15:21:48.524Z,58.9
2018-06-28T15:22:38.614Z,58.9
2018-06-28T15:23:28.641Z,58.9
2018-06-28T15:24:18.698Z,58.8
2018-06-28T15:25:08.800Z,58.9
2018-06-28T15:25:58.584Z,58.9
2018-06-28T15:26:48.981Z,58.8
2018-06-28T15:27:39.390Z,58.8
2018-06-28T15:28:29.011Z,58.8
2018-06-28T15:29:18.044Z,58.8
2018-06-28T15:30:08.308Z,58.8
2018-06-28T15:30:58.661Z,58.8
2018-06-28T15:31:49.043Z,58.8
2018-06-28T15:32:38.508Z,58.8
2018-06-28T15:33:29.671Z,58.8
2018-06-28T15:34:18.640Z,58.8
2018-06-28T15:35:09.520Z,58.8
2018-06-28T15:35:59.400Z,58.8
2018-06-28T15:36:49.669Z,58.8
2018-06-28T15:37:39.136Z,58.8
2018-06-28T15:38:28.918Z,58.8
2018-06-28T15:39:19.269Z,58.8
2018-06-28T15:40:09.900Z,58.8
2018-06-28T15:40:58.673Z,58.8
2018-06-28T15:41:50.030Z,58.8
2018-06-28T15:42:40.064Z,58.8
2018-06-28T15:43:29.285Z,58.7
2018-06-28T15:44:20.215Z,58.7
2018-06-28T15:45:09.720Z,58.7
2018-06-28T15:46:00.379Z,58.7
2018-06-28T15:46:49.571Z,58.7
2018-06-28T15:47:40.210Z,58.7
2018-06-28T15:48:30.269Z,58.7
2018-06-28T15:49:20.305Z,58.6
2018-06-28T15:50:10.376Z,58.7
2018-06-28T15:51:00.686Z,58.6
2018-06-28T15:51:50.759Z,58.6
2018-06-28T15:52:40.852Z,58.6
2018-06-28T15:53:30.604Z,58.6
2018-06-28T15:54:20.109Z,58.6
2018-06-28T15:55:10.433Z,58.6
2018-06-28T15:56:00.778Z,58.6
2018-06-28T15:56:51.133Z,58.6
2018-06-28T15:57:41.317Z,58.6
2018-06-28T15:59:20.853Z,58.6
2018-06-28T16:00:11.420Z,58.6
2018-06-28T16:06:51.060Z,58.5
2018-06-28T16:07:41.971Z,58.5
2018-06-28T16:08:31.989Z,58.5
2018-06-28T16:09:21.842Z,58.5
2018-06-28T16:10:11.395Z,58.5
2018-06-28T16:11:01.691Z,58.5
2018-06-28T16:11:51.842Z,58.5
2018-06-28T16:12:41.747Z,58.5
2018-06-28T16:13:32.398Z,58.5
2018-06-28T16:14:22.157Z,58.5
2018-06-28T16:15:11.381Z,58.5
2018-06-28T16:16:02.315Z,58.4
2018-06-28T16:16:51.939Z,58.4
2018-06-28T16:17:41.689Z,58.4
2018-06-28T16:18:32.465Z,58.4
2018-06-28T16:19:22.799Z,58.4
2018-06-28T16:20:12.884Z,58.4
2018-06-28T16:21:02.153Z,58.4
2018-06-28T16:21:53.016Z,58.4
2018-06-28T16:22:43.092Z,58.4
2018-06-28T16:23:33.542Z,58.4
2018-06-28T16:24:22.674Z,58.4
2018-06-28T16:25:12.418Z,58.4
2018-06-28T16:26:03.112Z,58.4
2018-06-28T16:26:53.450Z,58.4
2018-06-28T16:27:43.478Z,58.4
2018-06-28T16:28:33.540Z,58.4
2018-06-28T16:29:23.627Z,58.4
2018-06-28T16:30:13.392Z,58.4
2018-06-28T16:31:03.174Z,58.4
2018-06-28T16:31:53.526Z,58.4
2018-06-28T16:32:43.579Z,58.4
2018-06-28T16:33:33.915Z,58.4
2018-06-28T16:34:24.036Z,58.4
2018-06-28T16:35:13.778Z,58.4
2018-06-28T16:36:04.099Z,58.3
2018-06-28T16:36:53.616Z,58.3
2018-06-28T16:37:43.991Z,58.3
2018-06-28T16:38:34.274Z,58.3
2018-06-28T16:39:24.586Z,58.3
2018-06-28T16:40:14.435Z,58.3
2018-06-28T16:41:04.460Z,58.3
2018-06-28T16:41:54.269Z,58.3
2018-06-28T16:42:44.044Z,58.3
2018-06-28T16:43:34.367Z,58.3
2018-06-28T16:44:24.483Z,58.3
2018-06-28T16:45:14.559Z,58.3
2018-06-28T16:46:04.319Z,58.3
2018-06-28T16:46:54.948Z,58.3
2018-06-28T16:47:45.008Z,58.3
2018-06-28T16:48:34.761Z,58.3
2018-06-28T16:49:24.559Z,58.3
2018-06-28T16:50:15.180Z,58.3
2018-06-28T16:51:04.483Z,58.3
2018-06-28T16:51:54.765Z,58.3
2018-06-28T16:52:45.097Z,58.2
2018-06-28T16:53:34.873Z,58.2
2018-06-28T16:54:24.666Z,58.2
2018-06-28T16:55:15.551Z,58.2
2018-06-28T16:56:05.659Z,58.2
2018-06-28T16:56:55.709Z,58.2
2018-06-28T16:57:45.877Z,58.2
2018-06-28T16:58:35.518Z,58.2
2018-06-28T16:59:26.304Z,58.1
2018-06-28T17:00:15.923Z,58.1
2018-06-28T17:01:05.756Z,58.1
2018-06-28T17:01:55.559Z,58.1
2018-06-28T17:02:45.815Z,58.1
2018-06-28T17:03:35.592Z,58.1
2018-06-28T17:04:27.045Z,58.1
2018-06-28T17:05:16.269Z,58.1
2018-06-28T17:06:06.366Z,58.1
2018-06-28T17:06:56.407Z,58.1
2018-06-28T17:07:47.216Z,58.1
2018-06-28T17:08:36.545Z,58.1
2018-06-28T17:09:26.350Z,58.1
2018-06-28T17:10:16.387Z,58.1
2018-06-28T17:11:06.725Z,58.1
2018-06-28T17:11:56.492Z,58.1
2018-06-28T17:12:46.842Z,58.1
2018-06-28T17:13:36.357Z,58.1
2018-06-28T17:14:26.853Z,58.1
2018-06-28T17:15:16.462Z,58
2018-06-28T17:16:06.576Z,58.1
2018-06-28T17:16:57.300Z,58.1
2018-06-28T17:17:45.651Z,58.1
2018-06-28T17:18:37.015Z,58
2018-06-28T17:19:26.554Z,58
2018-06-28T17:20:17.850Z,58
2018-06-28T17:21:07.486Z,58
2018-06-28T17:21:57.023Z,58
2018-06-28T17:22:47.357Z,58
2018-06-28T17:23:37.415Z,58
2018-06-28T17:24:27.017Z,58
2018-06-28T17:25:18.351Z,58
2018-06-28T17:26:07.317Z,57.9
2018-06-28T17:26:57.979Z,57.9
2018-06-28T17:27:47.452Z,57.9
2018-06-28T17:28:37.509Z,57.9
2018-06-28T17:29:27.836Z,57.9
2018-06-28T17:30:17.905Z,57.9
2018-06-28T17:31:07.724Z,57.9
2018-06-28T17:31:59.633Z,57.9
2018-06-28T17:32:48.752Z,57.9
2018-06-28T17:33:37.907Z,57.9
2018-06-28T17:34:28.218Z,57.9
2018-06-28T17:35:17.714Z,57.9
2018-06-28T17:36:08.617Z,57.9
2018-06-28T17:36:58.704Z,57.9
2018-06-28T17:37:48.796Z,57.9
2018-06-28T17:38:38.800Z,57.9
2018-06-28T17:39:28.600Z,57.9
2018-06-28T17:40:19.121Z,57.9
2018-06-28T17:41:08.186Z,57.9
2018-06-28T17:41:59.059Z,57.9
2018-06-28T17:42:49.128Z,57.9
2018-06-28T17:43:39.185Z,57.9
2018-06-28T17:44:29.300Z,57.8
2018-06-28T17:45:18.888Z,57.9
2018-06-28T17:46:09.073Z,57.8
2018-06-28T17:46:58.887Z,57.8
2018-06-28T17:47:48.980Z,57.8
2018-06-28T17:48:39.577Z,57.8
2018-06-28T17:49:29.632Z,57.8
2018-06-28T17:50:19.407Z,57.8
2018-06-28T17:51:10.372Z,57.8
2018-06-28T17:51:59.521Z,57.8
2018-06-28T17:52:49.869Z,57.8
2018-06-28T18:01:10.213Z,57.7
2018-06-28T18:02:00.567Z,57.7
2018-06-28T18:02:50.620Z,57.7
2018-06-28T18:03:40.381Z,57.7
2018-06-28T18:04:30.261Z,57.7
2018-06-28T18:05:20.385Z,57.7
2018-06-28T18:06:10.333Z,57.7
2018-06-28T18:07:00.658Z,57.7
2018-06-28T18:07:50.465Z,57.7
2018-06-28T18:08:41.080Z,57.7
2018-06-28T18:09:31.230Z,57.7
2018-06-28T18:10:21.202Z,57.7
2018-06-28T18:11:11.001Z,57.6
2018-06-28T18:12:01.327Z,57.6
2018-06-28T18:12:52.215Z,57.6
2018-06-28T18:13:41.760Z,57.6
2018-06-28T18:14:31.513Z,57.6
2018-06-28T18:15:21.887Z,57.6
2018-06-28T18:16:11.662Z,57.6
2018-06-28T18:17:01.470Z,57.6
2018-06-28T18:17:51.512Z,57.6
2018-06-28T18:18:41.910Z,57.6
2018-06-28T18:19:31.880Z,57.6
2018-06-28T18:20:21.124Z,57.6
2018-06-28T18:21:11.747Z,57.6
2018-06-28T18:22:01.807Z,57.6
2018-06-28T18:22:51.657Z,57.6
2018-06-28T18:23:40.634Z,57.6
2018-06-28T18:24:31.787Z,57.6
2018-06-28T18:25:22.071Z,57.6
2018-06-28T18:26:11.632Z,57.6
2018-06-28T18:27:01.966Z,57.5
2018-06-28T18:27:51.985Z,57.5
2018-06-28T18:28:42.651Z,57.5
2018-06-28T18:29:32.356Z,57.5
2018-06-28T18:30:22.852Z,57.5
2018-06-28T18:31:11.936Z,57.5
2018-06-28T18:32:02.835Z,57.5
2018-06-28T18:32:52.918Z,57.5
2018-06-28T18:33:42.470Z,57.5
2018-06-28T18:34:32.456Z,57.5
2018-06-28T18:35:22.797Z,57.5
2018-06-28T18:36:13.127Z,57.5
2018-06-28T18:37:03.193Z,57.4
2018-06-28T18:37:52.699Z,57.4
2018-06-28T18:38:43.339Z,57.4
2018-06-28T18:39:33.104Z,57.4
2018-06-28T18:40:23.503Z,57.4
2018-06-28T18:41:13.261Z,57.4
2018-06-28T18:42:02.472Z,57.4
2018-06-28T18:42:53.652Z,57.4
2018-06-28T18:43:43.769Z,57.4
2018-06-28T18:44:33.513Z,57.4
2018-06-28T18:45:23.599Z,57.4
2018-06-28T18:46:13.606Z,57.4
2018-06-28T18:47:03.414Z,57.4
2018-06-28T18:47:53.469Z,57.4
2018-06-28T18:48:44.091Z,57.4
2018-06-28T18:49:33.576Z,57.4
2018-06-28T18:50:23.958Z,57.4
2018-06-28T18:51:13.724Z,57.4
2018-06-28T18:52:04.349Z,57.4
2018-06-28T18:52:53.637Z,57.4
2018-06-28T18:53:44.543Z,57.4
2018-06-28T18:54:33.779Z,57.4
2018-06-28T18:55:23.858Z,57.4
2018-06-28T18:56:14.222Z,57.3
2018-06-28T18:57:04.261Z,57.3
2018-06-28T18:57:54.298Z,57.3
2018-06-28T18:58:44.081Z,57.3
2018-06-28T18:59:34.901Z,57.3
2018-06-28T19:00:24.693Z,57.3
2018-06-28T19:01:15.003Z,57.3
2018-06-28T19:02:05.746Z,57.3
2018-06-28T19:02:54.861Z,57.3
2018-06-28T19:03:44.951Z,57.3
2018-06-28T19:04:34.995Z,57.3
2018-06-28T19:05:25.053Z,57.3
2018-06-28T19:06:14.863Z,57.3
2018-06-28T19:07:05.185Z,57.3
2018-06-28T19:07:55.323Z,57.3
2018-06-28T19:08:45.087Z,57.3
2018-06-28T19:09:35.673Z,57.3
2018-06-28T19:10:25.453Z,57.3
2018-06-28T19:11:15.515Z,57.3
2018-06-28T19:12:05.566Z,57.2
2018-06-28T19:12:55.692Z,57.2
2018-06-28T19:13:45.758Z,57.2
2018-06-28T19:14:36.317Z,57.2
2018-06-28T19:15:26.083Z,57.2
2018-06-28T19:16:15.888Z,57.2
2018-06-28T19:17:06.231Z,57.2
2018-06-28T19:17:56.007Z,57.2
2018-06-28T19:18:46.354Z,57.2
2018-06-28T19:19:36.123Z,57.2
2018-06-28T19:20:25.639Z,57.2
2018-06-28T19:21:17.043Z,57.2
2018-06-28T19:22:06.589Z,57.1
2018-06-28T19:22:56.654Z,57.1
2018-06-28T19:23:46.704Z,57.1
2018-06-28T19:24:36.575Z,57.1
2018-06-28T19:25:26.310Z,57.1
2018-06-28T19:26:16.692Z,57.1
2018-06-28T19:27:06.434Z,57.1
2018-06-28T19:27:57.041Z,57.1
2018-06-28T19:28:46.553Z,57.1
2018-06-28T19:29:37.161Z,57.1
2018-06-28T19:30:26.721Z,57.1
2018-06-28T19:31:17.299Z,57.1
2018-06-28T19:32:07.349Z,57.1
2018-06-28T19:32:57.457Z,57.1
2018-06-28T19:33:47.479Z,57.1
2018-06-28T19:34:37.313Z,57.1
2018-06-28T19:35:27.601Z,57.1
2018-06-28T19:36:17.686Z,57
2018-06-28T19:37:07.779Z,57
2018-06-28T19:37:57.524Z,57
2018-06-28T19:38:47.843Z,57
2018-06-28T19:39:37.663Z,57
2018-06-28T19:40:27.995Z,57